Aeroporto :
LOGIN :

Iscrizione | Disclaimer

   EN    FR    IT 

 










Sommario :    VFR   VFR Marginale   IFR   IFR Intensivo   IFR Molto Intensivo
Visibilità : 
Base nubi : 
>= 8 km
>= 3000ft
5 / 8 km
1000 / 3000 ft
1500m / 5 km
500 / 1000 ft
800 / 1500m
200 / 500 ft
< 800m
< 200 ft
Simboli :   Temporali  Nebbia  Neve Forte  Precipitazioni Forti  Vento > 20 kt
SIGMETs :   Varie  Temporali  Ghiacco  Turbolenza  Onda orograficha  Ceneri Vulcaniche






- Altitudine del aeroporto : 2297 ft


LEGA - Armilla

ULTIMO METAR :
  • 221500Z VRB03KT 9999 -DZRA FEW036 SCT049 OVC060 08/05 Q1015

METARs OBSOLETI :
  • 221400Z VRB03KT 9999 -DZRA FEW042 BKN060 OVC090 09/04 Q1015
  • 221300Z VRB02KT 9999 -DZRA BKN054 OVC065 08/03 Q1015
  • 221200Z VRB01KT 9999 FEW040 BKN080 08/03 Q1016

TAF TAF LEGA
Valido dal 22 a 15 ore il 23 a 00 ore UTC


221400Z 2215/2224 VRB03KT 9999 SCT025 BKN070
PROB30
TEMPO 2215/2223 18010KT 4000 SHRA SCT015 SCT025TCU BKN040



MetMap, La meteo Aeronautica in un colpo d'occhio ! - Copyright ORBIFLY Dicembre 2007 - Disclaimer

ORBIFLY MET'MAP TEAM :

Programmazione e sviluppo : Alexandra Zaïnal
Concezione : Baudouin d'Aumeries
Aiuto per la programmazione : Marc-Olivier Méhu
Supporto tecnico e logistico : Manuel Goepfert
Aiuto per la traduzione : Arnaldo La Scala

Contatto : metmap@orbifly.com




FONTI E CREDITI :

   NOAA